Portada
METAR-TAF:

METAR-TAF

Aeroports :

Multan, Pakistan

latitud: 30-12-12N, longitud: 71-25-09E, altitud: 122 m

Observació

L'informe es va fer fa 1 hora i 7 minuts, a les 16:00 UTC
Vent 6 kt del Sud-Oest
Temperatura 37°C
Humitat 57%
Pressió 992 hPa
Visibilitat: 4000 m
Núvols disperses a una alçada de 10000 ft
fum,

METAR: OPMT 251600Z 23006KT 4000 FU SCT100 37/27 Q0992 NOSIG

Hora: 22:07 (17:07 UTC)

Pronòstic

L'informe es va fer fa 6 hores i 7 minuts, a les 11:00 UTC
Pronòstic vàlid del 25 a les 12 UTC al 26 a les 18 UTC
Vent 10 kt del Sud-Oest
Visibilitat: 4000 m
Escasses núvols a una alçada de 4000 ft
Núvols disperses a una alçada de 10000 ft
calitja,

TAF: OPMT 251100Z 2512/2618 23010KT 4000 HZ FEW040 SCT100 TN31/2601Z TX41/2610Z

Observacions i pronòstics meteorològics de més de 4000 aeroports (METAR i TAF).

Les estacions disponibles són els punts grocs i vermells al mapa.

Posi el ratolí al punt desitjat per veure el nom de l'estació.

Feu clic per veure les observacions i els pronòstics meteorològics.

Per canviar el mapa: feu clic els botons verds amb una creu de color negre per apropar; al botó verd amb un guió per allunyar la imatge; o en les fletxes verdes per a mapes adjacents.


METAR-TAF: